PWSweather.com
Personal Weather Stations
Station Observations
KOHAVON11
Long Road Station, Avon, OH 44011

Long Road StationAvon, OH 44011

Lat: 41.437, Lon: -82.0477

Elevation: 686

Station Type: Davis Vantage Pro2

http://www.avon-weather.com

Latest ConditionsUpdated 11:45:39 AM EDT Saturday, Sep 22, 2018
Currently Today's Max Today's Min Today's Average
Temperature 60.3°F15.7°C 66.8°F19.3°C 57.9°F14.4°C 60.9°F16.1°C
Dew Point 50.3°F10.2°C 53.7°F12.1°C 47.5°F8.6°C 50.0°F10.0°C
Winds 2.0 mph NNE3.2 kmh NNE 10.0 mph -16.1 kmh - - 3.3 mph 5.3 kmh
Wind Gusts 13.0 mph20.9 kmh 15.0 mph24.1 kmh - -
Humidity 70% 73% 63% 68%
Pressure 30.26 in1024.7 mb 30.26 in1024.7 mb 30.07 in1018.3 mb -
Hour Temp Dew Point Humidity Winds Wind Gusts Pressure Precip Precip Rate Daily Precip Total
11:45 AM 60.3°F15.7°C 50.3°F10.2°C 70% 2.0 mph NNE3.2 kmh NNE 13.0 mph20.9 kmh 30.26 in1024.7 mb 0.00 in0.0 mm 0.00 in0.0 mm 0.00 in0.0 mm
11:40 AM 60.3°F15.7°C 49.5°F9.7°C 68% 3.0 mph NNE4.8 kmh NNE 13.0 mph20.9 kmh 30.26 in1024.7 mb 0.00 in0.0 mm 0.00 in0.0 mm 0.00 in0.0 mm
11:35 AM 60.5°F15.8°C 50.1°F10.1°C 69% 2.0 mph NE3.2 kmh NE 13.0 mph20.9 kmh 30.26 in1024.7 mb 0.00 in0.0 mm 0.00 in0.0 mm 0.00 in0.0 mm
11:30 AM 60.6°F15.9°C 49.7°F9.8°C 68% 3.0 mph E4.8 kmh E 12.0 mph19.3 kmh 30.25 in1024.4 mb 0.00 in0.0 mm 0.00 in0.0 mm 0.00 in0.0 mm
11:25 AM 60.8°F16.0°C 49.9°F9.9°C 68% 3.0 mph N4.8 kmh N 12.0 mph19.3 kmh 30.25 in1024.4 mb 0.00 in0.0 mm 0.00 in0.0 mm 0.00 in0.0 mm
11:20 AM 60.8°F16.0°C 49.9°F9.9°C 68% Calm Calm 12.0 mph19.3 kmh 30.25 in1024.4 mb 0.00 in0.0 mm 0.00 in0.0 mm 0.00 in0.0 mm
11:15 AM 60.8°F16.0°C 50.3°F10.2°C 69% 7.0 mph N11.3 kmh N 11.0 mph17.7 kmh 30.25 in1024.4 mb 0.00 in0.0 mm 0.00 in0.0 mm 0.00 in0.0 mm
11:10 AM 60.8°F16.0°C 50.3°F10.2°C 69% 2.0 mph NE3.2 kmh NE 8.0 mph12.9 kmh 30.25 in1024.4 mb 0.00 in0.0 mm 0.00 in0.0 mm 0.00 in0.0 mm
11:05 AM 60.7°F15.9°C 50.2°F10.1°C 69% 2.0 mph NE3.2 kmh NE 7.0 mph11.3 kmh 30.25 in1024.4 mb 0.00 in0.0 mm 0.00 in0.0 mm 0.00 in0.0 mm
11:00 AM 60.4°F15.8°C 50.4°F10.2°C 70% 2.0 mph NE3.2 kmh NE 12.0 mph19.3 kmh 30.25 in1024.4 mb 0.00 in0.0 mm 0.00 in0.0 mm 0.00 in0.0 mm
10:55 AM 60.3°F15.7°C 50.3°F10.2°C 70% 2.0 mph N3.2 kmh N 12.0 mph19.3 kmh 30.26 in1024.7 mb 0.00 in0.0 mm 0.00 in0.0 mm 0.00 in0.0 mm
10:50 AM 60.3°F15.7°C 50.7°F10.4°C 71% Calm Calm 12.0 mph19.3 kmh 30.26 in1024.7 mb 0.00 in0.0 mm 0.00 in0.0 mm 0.00 in0.0 mm
10:45 AM 60.1°F15.6°C 49.7°F9.8°C 69% 7.0 mph ENE11.3 kmh ENE 12.0 mph19.3 kmh 30.25 in1024.4 mb 0.00 in0.0 mm 0.00 in0.0 mm 0.00 in0.0 mm
10:40 AM 60.2°F15.7°C 49.8°F9.9°C 69% 1.0 mph NE1.6 kmh NE 11.0 mph17.7 kmh 30.25 in1024.4 mb 0.00 in0.0 mm 0.00 in0.0 mm 0.00 in0.0 mm
10:35 AM 60.5°F15.8°C 50.5°F10.3°C 70% 3.0 mph NNE4.8 kmh NNE 13.0 mph20.9 kmh 30.25 in1024.4 mb 0.00 in0.0 mm 0.00 in0.0 mm 0.00 in0.0 mm
10:30 AM 60.5°F15.8°C 50.5°F10.3°C 70% 2.0 mph ENE3.2 kmh ENE 13.0 mph20.9 kmh 30.25 in1024.4 mb 0.00 in0.0 mm 0.00 in0.0 mm 0.00 in0.0 mm
10:25 AM 60.7°F15.9°C 51.4°F10.8°C 72% 4.0 mph ENE6.4 kmh ENE 13.0 mph20.9 kmh 30.25 in1024.4 mb 0.00 in0.0 mm 0.00 in0.0 mm 0.00 in0.0 mm
10:20 AM 60.4°F15.8°C 50.8°F10.4°C 71% 3.0 mph NE4.8 kmh NE 13.0 mph20.9 kmh 30.25 in1024.4 mb 0.00 in0.0 mm 0.00 in0.0 mm 0.00 in0.0 mm
10:15 AM 60.3°F15.7°C 50.3°F10.2°C 70% 2.0 mph E3.2 kmh E 9.0 mph14.5 kmh 30.25 in1024.4 mb 0.00 in0.0 mm 0.00 in0.0 mm 0.00 in0.0 mm
10:10 AM 60.2°F15.7°C 51.3°F10.7°C 73% 3.0 mph NE4.8 kmh NE 9.0 mph14.5 kmh 30.25 in1024.4 mb 0.00 in0.0 mm 0.00 in0.0 mm 0.00 in0.0 mm
10:05 AM 59.9°F15.5°C 50.3°F10.2°C 71% 4.0 mph ENE6.4 kmh ENE 9.0 mph14.5 kmh 30.25 in1024.4 mb 0.00 in0.0 mm 0.00 in0.0 mm 0.00 in0.0 mm
10:00 AM 59.6°F15.3°C 50.0°F10.0°C 71% 1.0 mph NE1.6 kmh NE 10.0 mph16.1 kmh 30.24 in1024.0 mb 0.00 in0.0 mm 0.00 in0.0 mm 0.00 in0.0 mm
09:55 AM 59.5°F15.3°C 49.5°F9.7°C 70% 5.0 mph NE8.0 kmh NE 10.0 mph16.1 kmh 30.24 in1024.0 mb 0.00 in0.0 mm 0.00 in0.0 mm 0.00 in0.0 mm
09:50 AM 59.5°F15.3°C 49.9°F9.9°C 71% 2.0 mph NE3.2 kmh NE 10.0 mph16.1 kmh 30.24 in1024.0 mb 0.00 in0.0 mm 0.00 in0.0 mm 0.00 in0.0 mm
09:45 AM 59.4°F15.2°C 49.4°F9.7°C 70% 2.0 mph ENE3.2 kmh ENE 10.0 mph16.1 kmh 30.24 in1024.0 mb 0.00 in0.0 mm 0.00 in0.0 mm 0.00 in0.0 mm
09:40 AM 59.4°F15.2°C 49.4°F9.7°C 70% 3.0 mph N4.8 kmh N 10.0 mph16.1 kmh 30.24 in1024.0 mb 0.00 in0.0 mm 0.00 in0.0 mm 0.00 in0.0 mm
09:35 AM 59.4°F15.2°C 49.4°F9.7°C 70% 1.0 mph NE1.6 kmh NE 12.0 mph19.3 kmh 30.24 in1024.0 mb 0.00 in0.0 mm 0.00 in0.0 mm 0.00 in0.0 mm
09:30 AM 59.4°F15.2°C 49.4°F9.7°C 70% 4.0 mph NNE6.4 kmh NNE 12.0 mph19.3 kmh 30.24 in1024.0 mb 0.00 in0.0 mm 0.00 in0.0 mm 0.00 in0.0 mm
09:25 AM 59.2°F15.1°C 49.2°F9.6°C 70% 2.0 mph E3.2 kmh E 12.0 mph19.3 kmh 30.23 in1023.7 mb 0.00 in0.0 mm 0.00 in0.0 mm 0.00 in0.0 mm
09:20 AM 59.1°F15.1°C 49.1°F9.5°C 70% 4.0 mph NNE6.4 kmh NNE 12.0 mph19.3 kmh 30.23 in1023.7 mb 0.00 in0.0 mm 0.00 in0.0 mm 0.00 in0.0 mm
09:15 AM 59.0°F15.0°C 49.4°F9.7°C 71% 1.0 mph NE1.6 kmh NE 12.0 mph19.3 kmh 30.23 in1023.7 mb 0.00 in0.0 mm 0.00 in0.0 mm 0.00 in0.0 mm
09:10 AM 58.9°F14.9°C 49.7°F9.8°C 72% 4.0 mph NE6.4 kmh NE 12.0 mph19.3 kmh 30.23 in1023.7 mb 0.00 in0.0 mm 0.00 in0.0 mm 0.00 in0.0 mm
09:05 AM 58.8°F14.9°C 49.6°F9.8°C 72% 3.0 mph NNE4.8 kmh NNE 7.0 mph11.3 kmh 30.23 in1023.7 mb 0.00 in0.0 mm 0.00 in0.0 mm 0.00 in0.0 mm
09:00 AM 58.6°F14.8°C 49.4°F9.7°C 72% 3.0 mph NE4.8 kmh NE 9.0 mph14.5 kmh 30.23 in1023.7 mb 0.00 in0.0 mm 0.00 in0.0 mm 0.00 in0.0 mm
08:55 AM 58.5°F14.7°C 49.3°F9.6°C 72% 1.0 mph NW1.6 kmh NW 9.0 mph14.5 kmh 30.23 in1023.7 mb 0.00 in0.0 mm 0.00 in0.0 mm 0.00 in0.0 mm
08:50 AM 58.5°F14.7°C 49.7°F9.8°C 73% 3.0 mph NNE4.8 kmh NNE 10.0 mph16.1 kmh 30.23 in1023.7 mb 0.00 in0.0 mm 0.00 in0.0 mm 0.00 in0.0 mm
08:45 AM 58.4°F14.7°C 49.2°F9.6°C 72% 4.0 mph N6.4 kmh N 10.0 mph16.1 kmh 30.23 in1023.7 mb 0.00 in0.0 mm 0.00 in0.0 mm 0.00 in0.0 mm
08:40 AM 58.3°F14.6°C 49.1°F9.5°C 72% 6.0 mph NE9.7 kmh NE 10.0 mph16.1 kmh 30.23 in1023.7 mb 0.00 in0.0 mm 0.00 in0.0 mm 0.00 in0.0 mm
08:35 AM 58.3°F14.6°C 49.1°F9.5°C 72% 5.0 mph NE8.0 kmh NE 10.0 mph16.1 kmh 30.22 in1023.4 mb 0.00 in0.0 mm 0.00 in0.0 mm 0.00 in0.0 mm
08:30 AM 58.3°F14.6°C 49.1°F9.5°C 72% 3.0 mph E4.8 kmh E 8.0 mph12.9 kmh 30.22 in1023.4 mb 0.00 in0.0 mm 0.00 in0.0 mm 0.00 in0.0 mm
08:25 AM 58.2°F14.6°C 49.0°F9.4°C 72% 2.0 mph ENE3.2 kmh ENE 9.0 mph14.5 kmh 30.22 in1023.4 mb 0.00 in0.0 mm 0.00 in0.0 mm 0.00 in0.0 mm
08:20 AM 58.2°F14.6°C 49.0°F9.4°C 72% 1.0 mph N1.6 kmh N 9.0 mph14.5 kmh 30.22 in1023.4 mb 0.00 in0.0 mm 0.00 in0.0 mm 0.00 in0.0 mm
08:15 AM 58.2°F14.6°C 49.0°F9.4°C 72% 1.0 mph NE1.6 kmh NE 9.0 mph14.5 kmh 30.21 in1023.0 mb 0.00 in0.0 mm 0.00 in0.0 mm 0.00 in0.0 mm
08:10 AM 58.1°F14.5°C 48.6°F9.2°C 71% Calm Calm 9.0 mph14.5 kmh 30.21 in1023.0 mb 0.00 in0.0 mm 0.00 in0.0 mm 0.00 in0.0 mm
08:05 AM 58.0°F14.4°C 48.5°F9.2°C 71% 7.0 mph NNE11.3 kmh NNE 8.0 mph12.9 kmh 30.21 in1023.0 mb 0.00 in0.0 mm 0.00 in0.0 mm 0.00 in0.0 mm
08:00 AM 58.0°F14.4°C 48.5°F9.2°C 71% 3.0 mph N4.8 kmh N 10.0 mph16.1 kmh 30.21 in1023.0 mb 0.00 in0.0 mm 0.00 in0.0 mm 0.00 in0.0 mm
07:55 AM 58.0°F14.4°C 48.5°F9.2°C 71% 3.0 mph NE4.8 kmh NE 10.0 mph16.1 kmh 30.21 in1023.0 mb 0.00 in0.0 mm 0.00 in0.0 mm 0.00 in0.0 mm
07:50 AM 57.9°F14.4°C 48.0°F8.9°C 70% 3.0 mph NW4.8 kmh NW 10.0 mph16.1 kmh 30.21 in1023.0 mb 0.00 in0.0 mm 0.00 in0.0 mm 0.00 in0.0 mm
07:45 AM 57.9°F14.4°C 48.0°F8.9°C 70% 2.0 mph NNE3.2 kmh NNE 10.0 mph16.1 kmh 30.21 in1023.0 mb 0.00 in0.0 mm 0.00 in0.0 mm 0.00 in0.0 mm
07:40 AM 58.0°F14.4°C 48.1°F8.9°C 70% 2.0 mph NE3.2 kmh NE 9.0 mph14.5 kmh 30.20 in1022.7 mb 0.00 in0.0 mm 0.00 in0.0 mm 0.00 in0.0 mm
07:35 AM 58.0°F14.4°C 47.7°F8.7°C 69% 7.0 mph NE11.3 kmh NE 9.0 mph14.5 kmh 30.20 in1022.7 mb 0.00 in0.0 mm 0.00 in0.0 mm 0.00 in0.0 mm
07:30 AM 58.0°F14.4°C 47.7°F8.7°C 69% 4.0 mph NE6.4 kmh NE 9.0 mph14.5 kmh 30.21 in1023.0 mb 0.00 in0.0 mm 0.00 in0.0 mm 0.00 in0.0 mm
07:25 AM 58.0°F14.4°C 48.1°F8.9°C 70% 1.0 mph NE1.6 kmh NE 9.0 mph14.5 kmh 30.20 in1022.7 mb 0.00 in0.0 mm 0.00 in0.0 mm 0.00 in0.0 mm
07:20 AM 58.1°F14.5°C 47.8°F8.8°C 69% 1.0 mph NE1.6 kmh NE 9.0 mph14.5 kmh 30.20 in1022.7 mb 0.00 in0.0 mm 0.00 in0.0 mm 0.00 in0.0 mm
07:15 AM 58.1°F14.5°C 47.8°F8.8°C 69% 3.0 mph NNW4.8 kmh NNW 11.0 mph17.7 kmh 30.20 in1022.7 mb 0.00 in0.0 mm 0.00 in0.0 mm 0.00 in0.0 mm
07:10 AM 58.1°F14.5°C 47.8°F8.8°C 69% 2.0 mph NNE3.2 kmh NNE 11.0 mph17.7 kmh 30.20 in1022.7 mb 0.00 in0.0 mm 0.00 in0.0 mm 0.00 in0.0 mm
07:05 AM 58.1°F14.5°C 47.8°F8.8°C 69% 4.0 mph NE6.4 kmh NE 14.0 mph22.5 kmh 30.20 in1022.7 mb 0.00 in0.0 mm 0.00 in0.0 mm 0.00 in0.0 mm
07:00 AM 58.2°F14.6°C 47.9°F8.8°C 69% 3.0 mph NE4.8 kmh NE 14.0 mph22.5 kmh 30.20 in1022.7 mb 0.00 in0.0 mm 0.00 in0.0 mm 0.00 in0.0 mm
06:55 AM 58.2°F14.6°C 47.9°F8.8°C 69% 3.0 mph ENE4.8 kmh ENE 14.0 mph22.5 kmh 30.20 in1022.7 mb 0.00 in0.0 mm 0.00 in0.0 mm 0.00 in0.0 mm
06:50 AM 58.2°F14.6°C 47.9°F8.8°C 69% 3.0 mph ENE4.8 kmh ENE 14.0 mph22.5 kmh 30.20 in1022.7 mb 0.00 in0.0 mm 0.00 in0.0 mm 0.00 in0.0 mm
06:45 AM 58.3°F14.6°C 47.6°F8.7°C 68% 8.0 mph N12.9 kmh N 10.0 mph16.1 kmh 30.20 in1022.7 mb 0.00 in0.0 mm 0.00 in0.0 mm 0.00 in0.0 mm
06:40 AM 58.2°F14.6°C 47.5°F8.6°C 68% 1.0 mph NNE1.6 kmh NNE 10.0 mph16.1 kmh 30.20 in1022.7 mb 0.00 in0.0 mm 0.00 in0.0 mm 0.00 in0.0 mm
06:35 AM 58.2°F14.6°C 47.5°F8.6°C 68% 4.0 mph NE6.4 kmh NE 9.0 mph14.5 kmh 30.19 in1022.4 mb 0.00 in0.0 mm 0.00 in0.0 mm 0.00 in0.0 mm
06:30 AM 58.3°F14.6°C 47.6°F8.7°C 68% 3.0 mph N4.8 kmh N 9.0 mph14.5 kmh 30.19 in1022.4 mb 0.00 in0.0 mm 0.00 in0.0 mm 0.00 in0.0 mm
06:25 AM 58.3°F14.6°C 47.6°F8.7°C 68% 3.0 mph NNE4.8 kmh NNE 9.0 mph14.5 kmh 30.19 in1022.4 mb 0.00 in0.0 mm 0.00 in0.0 mm 0.00 in0.0 mm
06:20 AM 58.3°F14.6°C 48.0°F8.9°C 69% 1.0 mph NE1.6 kmh NE 9.0 mph14.5 kmh 30.19 in1022.4 mb 0.00 in0.0 mm 0.00 in0.0 mm 0.00 in0.0 mm
06:15 AM 58.4°F14.7°C 48.1°F8.9°C 69% 1.0 mph NE1.6 kmh NE 9.0 mph14.5 kmh 30.19 in1022.4 mb 0.00 in0.0 mm 0.00 in0.0 mm 0.00 in0.0 mm
06:10 AM 58.4°F14.7°C 48.1°F8.9°C 69% 9.0 mph NE14.5 kmh NE 9.0 mph14.5 kmh 30.19 in1022.4 mb 0.00 in0.0 mm 0.00 in0.0 mm 0.00 in0.0 mm
06:05 AM 58.5°F14.7°C 48.2°F9.0°C 69% 2.0 mph NE3.2 kmh NE 13.0 mph20.9 kmh 30.19 in1022.4 mb 0.00 in0.0 mm 0.00 in0.0 mm 0.00 in0.0 mm
06:00 AM 58.5°F14.7°C 48.2°F9.0°C 69% 2.0 mph NE3.2 kmh NE 13.0 mph20.9 kmh 30.19 in1022.4 mb 0.00 in0.0 mm 0.00 in0.0 mm 0.00 in0.0 mm
05:55 AM 58.6°F14.8°C 48.2°F9.0°C 69% 10.0 mph N16.1 kmh N 13.0 mph20.9 kmh 30.18 in1022.0 mb 0.00 in0.0 mm 0.00 in0.0 mm 0.00 in0.0 mm
05:50 AM 58.7°F14.8°C 47.9°F8.8°C 68% 9.0 mph NE14.5 kmh NE 13.0 mph20.9 kmh 30.18 in1022.0 mb 0.00 in0.0 mm 0.00 in0.0 mm 0.00 in0.0 mm
05:45 AM 58.7°F14.8°C 47.9°F8.8°C 68% 2.0 mph NNW3.2 kmh NNW 10.0 mph16.1 kmh 30.18 in1022.0 mb 0.00 in0.0 mm 0.00 in0.0 mm 0.00 in0.0 mm
05:40 AM 58.9°F14.9°C 48.1°F8.9°C 68% 2.0 mph NE3.2 kmh NE 10.0 mph16.1 kmh 30.18 in1022.0 mb 0.00 in0.0 mm 0.00 in0.0 mm 0.00 in0.0 mm
05:35 AM 58.9°F14.9°C 48.1°F8.9°C 68% 6.0 mph N9.7 kmh N 10.0 mph16.1 kmh 30.18 in1022.0 mb 0.00 in0.0 mm 0.00 in0.0 mm 0.00 in0.0 mm
05:30 AM 59.0°F15.0°C 48.2°F9.0°C 68% 2.0 mph NE3.2 kmh NE 10.0 mph16.1 kmh 30.18 in1022.0 mb 0.00 in0.0 mm 0.00 in0.0 mm 0.00 in0.0 mm
05:25 AM 59.1°F15.1°C 48.3°F9.1°C 68% 6.0 mph N9.7 kmh N 11.0 mph17.7 kmh 30.18 in1022.0 mb 0.00 in0.0 mm 0.00 in0.0 mm 0.00 in0.0 mm
05:20 AM 59.2°F15.1°C 48.4°F9.1°C 68% 7.0 mph N11.3 kmh N 11.0 mph17.7 kmh 30.17 in1021.7 mb 0.00 in0.0 mm 0.00 in0.0 mm 0.00 in0.0 mm
05:15 AM 59.2°F15.1°C 48.0°F8.9°C 67% 5.0 mph N8.0 kmh N 11.0 mph17.7 kmh 30.17 in1021.7 mb 0.00 in0.0 mm 0.00 in0.0 mm 0.00 in0.0 mm
05:10 AM 59.4°F15.2°C 48.2°F9.0°C 67% 4.0 mph NNE6.4 kmh NNE 11.0 mph17.7 kmh 30.17 in1021.7 mb 0.00 in0.0 mm 0.00 in0.0 mm 0.00 in0.0 mm
05:05 AM 59.5°F15.3°C 48.3°F9.1°C 67% 7.0 mph N11.3 kmh N 10.0 mph16.1 kmh 30.17 in1021.7 mb 0.00 in0.0 mm 0.00 in0.0 mm 0.00 in0.0 mm
05:00 AM 59.6°F15.3°C 48.0°F8.9°C 66% 4.0 mph N6.4 kmh N 8.0 mph12.9 kmh 30.17 in1021.7 mb 0.00 in0.0 mm 0.00 in0.0 mm 0.00 in0.0 mm
04:55 AM 59.7°F15.4°C 48.1°F8.9°C 66% 3.0 mph NE4.8 kmh NE 11.0 mph17.7 kmh 30.17 in1021.7 mb 0.00 in0.0 mm 0.00 in0.0 mm 0.00 in0.0 mm
04:50 AM 59.8°F15.4°C 48.2°F9.0°C 66% 2.0 mph NE3.2 kmh NE 11.0 mph17.7 kmh 30.17 in1021.7 mb 0.00 in0.0 mm 0.00 in0.0 mm 0.00 in0.0 mm
04:45 AM 60.0°F15.6°C 48.4°F9.1°C 66% 9.0 mph NNE14.5 kmh NNE 14.0 mph22.5 kmh 30.17 in1021.7 mb 0.00 in0.0 mm 0.00 in0.0 mm 0.00 in0.0 mm
04:40 AM 60.2°F15.7°C 48.5°F9.2°C 66% 3.0 mph ENE4.8 kmh ENE 14.0 mph22.5 kmh 30.17 in1021.7 mb 0.00 in0.0 mm 0.00 in0.0 mm 0.00 in0.0 mm
04:35 AM 60.4°F15.8°C 48.7°F9.3°C 66% 6.0 mph N9.7 kmh N 15.0 mph24.1 kmh 30.16 in1021.3 mb 0.00 in0.0 mm 0.00 in0.0 mm 0.00 in0.0 mm
04:30 AM 60.6°F15.9°C 48.9°F9.4°C 66% 9.0 mph N14.5 kmh N 15.0 mph24.1 kmh 30.16 in1021.3 mb 0.00 in0.0 mm 0.00 in0.0 mm 0.00 in0.0 mm
04:25 AM 60.9°F16.1°C 49.2°F9.6°C 66% 6.0 mph N9.7 kmh N 15.0 mph24.1 kmh 30.16 in1021.3 mb 0.00 in0.0 mm 0.00 in0.0 mm 0.00 in0.0 mm
04:20 AM 61.3°F16.3°C 49.6°F9.8°C 66% 5.0 mph NNE8.0 kmh NNE 15.0 mph24.1 kmh 30.16 in1021.3 mb 0.00 in0.0 mm 0.00 in0.0 mm 0.00 in0.0 mm
04:15 AM 61.7°F16.5°C 50.4°F10.2°C 67% 6.0 mph NE9.7 kmh NE 14.0 mph22.5 kmh 30.15 in1021.0 mb 0.00 in0.0 mm 0.00 in0.0 mm 0.00 in0.0 mm
04:10 AM 61.9°F16.6°C 50.6°F10.3°C 67% 7.0 mph NNE11.3 kmh NNE 14.0 mph22.5 kmh 30.15 in1021.0 mb 0.00 in0.0 mm 0.00 in0.0 mm 0.00 in0.0 mm
04:05 AM 62.1°F16.7°C 50.8°F10.4°C 67% 9.0 mph NNW14.5 kmh NNW 14.0 mph22.5 kmh 30.15 in1021.0 mb 0.00 in0.0 mm 0.00 in0.0 mm 0.00 in0.0 mm
04:00 AM 62.1°F16.7°C 50.3°F10.2°C 66% 3.0 mph N4.8 kmh N 14.0 mph22.5 kmh 30.14 in1020.7 mb 0.00 in0.0 mm 0.00 in0.0 mm 0.00 in0.0 mm
03:55 AM 62.2°F16.8°C 50.4°F10.2°C 66% 10.0 mph NE16.1 kmh NE 14.0 mph22.5 kmh 30.14 in1020.7 mb 0.00 in0.0 mm 0.00 in0.0 mm 0.00 in0.0 mm
03:50 AM 62.3°F16.8°C 50.5°F10.3°C 66% 1.0 mph NE1.6 kmh NE 12.0 mph19.3 kmh 30.14 in1020.7 mb 0.00 in0.0 mm 0.00 in0.0 mm 0.00 in0.0 mm
03:45 AM 62.3°F16.8°C 50.9°F10.5°C 67% 4.0 mph NE6.4 kmh NE 12.0 mph19.3 kmh 30.14 in1020.7 mb 0.00 in0.0 mm 0.00 in0.0 mm 0.00 in0.0 mm
03:40 AM 62.4°F16.9°C 51.0°F10.6°C 67% 1.0 mph NNE1.6 kmh NNE 12.0 mph19.3 kmh 30.14 in1020.7 mb 0.00 in0.0 mm 0.00 in0.0 mm 0.00 in0.0 mm
03:35 AM 62.5°F16.9°C 51.1°F10.6°C 67% 3.0 mph N4.8 kmh N 12.0 mph19.3 kmh 30.14 in1020.7 mb 0.00 in0.0 mm 0.00 in0.0 mm 0.00 in0.0 mm
03:30 AM 62.5°F16.9°C 50.7°F10.4°C 66% 2.0 mph NE3.2 kmh NE 13.0 mph20.9 kmh 30.13 in1020.3 mb 0.00 in0.0 mm 0.00 in0.0 mm 0.00 in0.0 mm
03:25 AM 62.6°F17.0°C 51.2°F10.7°C 67% 10.0 mph N16.1 kmh N 13.0 mph20.9 kmh 30.13 in1020.3 mb 0.00 in0.0 mm 0.00 in0.0 mm 0.00 in0.0 mm
03:20 AM 62.7°F17.1°C 51.3°F10.7°C 67% 6.0 mph N9.7 kmh N 14.0 mph22.5 kmh 30.13 in1020.3 mb 0.00 in0.0 mm 0.00 in0.0 mm 0.00 in0.0 mm
03:15 AM 62.7°F17.1°C 51.3°F10.7°C 67% 2.0 mph NNE3.2 kmh NNE 14.0 mph22.5 kmh 30.13 in1020.3 mb 0.00 in0.0 mm 0.00 in0.0 mm 0.00 in0.0 mm
03:10 AM 62.8°F17.1°C 51.0°F10.6°C 66% 9.0 mph NNW14.5 kmh NNW 14.0 mph22.5 kmh 30.13 in1020.3 mb 0.00 in0.0 mm 0.00 in0.0 mm 0.00 in0.0 mm
03:05 AM 62.8°F17.1°C 51.0°F10.6°C 66% 8.0 mph N12.9 kmh N 14.0 mph22.5 kmh 30.12 in1020.0 mb 0.00 in0.0 mm 0.00 in0.0 mm 0.00 in0.0 mm
03:00 AM 62.9°F17.2°C 51.1°F10.6°C 66% 1.0 mph N1.6 kmh N 11.0 mph17.7 kmh 30.13 in1020.3 mb 0.00 in0.0 mm 0.00 in0.0 mm 0.00 in0.0 mm
02:55 AM 63.0°F17.2°C 50.8°F10.4°C 65% 2.0 mph NNW3.2 kmh NNW 15.0 mph24.1 kmh 30.12 in1020.0 mb 0.00 in0.0 mm 0.00 in0.0 mm 0.00 in0.0 mm
02:50 AM 63.2°F17.3°C 51.0°F10.6°C 65% 4.0 mph NE6.4 kmh NE 15.0 mph24.1 kmh 30.12 in1020.0 mb 0.00 in0.0 mm 0.00 in0.0 mm 0.00 in0.0 mm
02:45 AM 63.3°F17.4°C 51.1°F10.6°C 65% Calm Calm 15.0 mph24.1 kmh 30.12 in1020.0 mb 0.00 in0.0 mm 0.00 in0.0 mm 0.00 in0.0 mm
02:40 AM 63.3°F17.4°C 51.1°F10.6°C 65% 5.0 mph NNE8.0 kmh NNE 15.0 mph24.1 kmh 30.12 in1020.0 mb 0.00 in0.0 mm 0.00 in0.0 mm 0.00 in0.0 mm
02:35 AM 63.4°F17.4°C 51.6°F10.9°C 66% 7.0 mph NNW11.3 kmh NNW 12.0 mph19.3 kmh 30.12 in1020.0 mb 0.00 in0.0 mm 0.00 in0.0 mm 0.00 in0.0 mm
02:30 AM 63.5°F17.5°C 52.1°F11.2°C 67% 6.0 mph NW9.7 kmh NW 12.0 mph19.3 kmh 30.12 in1020.0 mb 0.00 in0.0 mm 0.00 in0.0 mm 0.00 in0.0 mm
02:25 AM 63.5°F17.5°C 52.1°F11.2°C 67% 1.0 mph NW1.6 kmh NW 12.0 mph19.3 kmh 30.12 in1020.0 mb 0.00 in0.0 mm 0.00 in0.0 mm 0.00 in0.0 mm
02:20 AM 63.6°F17.6°C 52.2°F11.2°C 67% 7.0 mph NNE11.3 kmh NNE 10.0 mph16.1 kmh 30.12 in1020.0 mb 0.00 in0.0 mm 0.00 in0.0 mm 0.00 in0.0 mm
02:15 AM 63.6°F17.6°C 52.2°F11.2°C 67% 1.0 mph NE1.6 kmh NE 12.0 mph19.3 kmh 30.12 in1020.0 mb 0.00 in0.0 mm 0.00 in0.0 mm 0.00 in0.0 mm
02:10 AM 63.7°F17.6°C 51.9°F11.1°C 66% 1.0 mph N1.6 kmh N 12.0 mph19.3 kmh 30.11 in1019.6 mb 0.00 in0.0 mm 0.00 in0.0 mm 0.00 in0.0 mm
02:05 AM 63.8°F17.7°C 52.0°F11.1°C 66% 2.0 mph NW3.2 kmh NW 12.0 mph19.3 kmh 30.11 in1019.6 mb 0.00 in0.0 mm 0.00 in0.0 mm 0.00 in0.0 mm
02:00 AM 63.9°F17.7°C 52.0°F11.1°C 66% 2.0 mph N3.2 kmh N 12.0 mph19.3 kmh 30.11 in1019.6 mb 0.00 in0.0 mm 0.00 in0.0 mm 0.00 in0.0 mm
01:55 AM 64.0°F17.8°C 52.1°F11.2°C 66% 1.0 mph N1.6 kmh N 8.0 mph12.9 kmh 30.11 in1019.6 mb 0.00 in0.0 mm 0.00 in0.0 mm 0.00 in0.0 mm
01:50 AM 64.1°F17.8°C 52.2°F11.2°C 66% 2.0 mph WNW3.2 kmh WNW 12.0 mph19.3 kmh 30.11 in1019.6 mb 0.00 in0.0 mm 0.00 in0.0 mm 0.00 in0.0 mm
01:45 AM 64.1°F17.8°C 51.8°F11.0°C 65% 3.0 mph NNW4.8 kmh NNW 12.0 mph19.3 kmh 30.10 in1019.3 mb 0.00 in0.0 mm 0.00 in0.0 mm 0.00 in0.0 mm
01:40 AM 64.2°F17.9°C 51.9°F11.1°C 65% 2.0 mph NW3.2 kmh NW 12.0 mph19.3 kmh 30.10 in1019.3 mb 0.00 in0.0 mm 0.00 in0.0 mm 0.00 in0.0 mm
01:35 AM 64.3°F17.9°C 52.0°F11.1°C 65% 1.0 mph NNW1.6 kmh NNW 12.0 mph19.3 kmh 30.10 in1019.3 mb 0.00 in0.0 mm 0.00 in0.0 mm 0.00 in0.0 mm
01:30 AM 64.4°F18.0°C 51.7°F10.9°C 64% 4.0 mph NNE6.4 kmh NNE 8.0 mph12.9 kmh 30.10 in1019.3 mb 0.00 in0.0 mm 0.00 in0.0 mm 0.00 in0.0 mm
01:25 AM 64.6°F18.1°C 52.3°F11.3°C 65% 2.0 mph NNW3.2 kmh NNW 6.0 mph9.7 kmh 30.09 in1019.0 mb 0.00 in0.0 mm 0.00 in0.0 mm 0.00 in0.0 mm
01:20 AM 64.7°F18.2°C 52.4°F11.3°C 65% 4.0 mph NNE6.4 kmh NNE 6.0 mph9.7 kmh 30.09 in1019.0 mb 0.00 in0.0 mm 0.00 in0.0 mm 0.00 in0.0 mm
01:15 AM 64.8°F18.2°C 52.9°F11.6°C 66% 2.0 mph NNE3.2 kmh NNE 8.0 mph12.9 kmh 30.09 in1019.0 mb 0.00 in0.0 mm 0.00 in0.0 mm 0.00 in0.0 mm
01:10 AM 64.8°F18.2°C 52.5°F11.4°C 65% 1.0 mph N1.6 kmh N 8.0 mph12.9 kmh 30.09 in1019.0 mb 0.00 in0.0 mm 0.00 in0.0 mm 0.00 in0.0 mm
01:05 AM 64.8°F18.2°C 52.5°F11.4°C 65% 3.0 mph WNW4.8 kmh WNW 8.0 mph12.9 kmh 30.09 in1019.0 mb 0.00 in0.0 mm 0.00 in0.0 mm 0.00 in0.0 mm
01:00 AM 64.8°F18.2°C 52.5°F11.4°C 65% 3.0 mph WNW4.8 kmh WNW 8.0 mph12.9 kmh 30.09 in1019.0 mb 0.00 in0.0 mm 0.00 in0.0 mm 0.00 in0.0 mm
12:55 AM 64.9°F18.3°C 53.0°F11.7°C 66% 1.0 mph NW1.6 kmh NW 8.0 mph12.9 kmh 30.08 in1018.6 mb 0.00 in0.0 mm 0.00 in0.0 mm 0.00 in0.0 mm
12:50 AM 65.0°F18.3°C 52.7°F11.5°C 65% Calm Calm 8.0 mph12.9 kmh 30.08 in1018.6 mb 0.00 in0.0 mm 0.00 in0.0 mm 0.00 in0.0 mm
12:45 AM 65.2°F18.4°C 52.8°F11.6°C 65% Calm Calm 5.0 mph8.0 kmh 30.08 in1018.6 mb 0.00 in0.0 mm 0.00 in0.0 mm 0.00 in0.0 mm
12:40 AM 65.3°F18.5°C 52.9°F11.6°C 65% Calm Calm 6.0 mph9.7 kmh 30.08 in1018.6 mb 0.00 in0.0 mm 0.00 in0.0 mm 0.00 in0.0 mm
12:35 AM 65.5°F18.6°C 53.1°F11.7°C 65% Calm Calm 6.0 mph9.7 kmh 30.08 in1018.6 mb 0.00 in0.0 mm 0.00 in0.0 mm 0.00 in0.0 mm
12:30 AM 65.7°F18.7°C 52.9°F11.6°C 64% 2.0 mph N3.2 kmh N 8.0 mph12.9 kmh 30.07 in1018.3 mb 0.00 in0.0 mm 0.00 in0.0 mm 0.00 in0.0 mm
12:25 AM 65.9°F18.8°C 53.1°F11.7°C 64% 3.0 mph WNW4.8 kmh WNW 8.0 mph12.9 kmh 30.07 in1018.3 mb 0.00 in0.0 mm 0.00 in0.0 mm 0.00 in0.0 mm
12:20 AM 66.1°F18.9°C 53.3°F11.8°C 64% 2.0 mph NW3.2 kmh NW 8.0 mph12.9 kmh 30.07 in1018.3 mb 0.00 in0.0 mm 0.00 in0.0 mm 0.00 in0.0 mm
12:15 AM 66.3°F19.1°C 53.4°F11.9°C 64% Calm Calm 8.0 mph12.9 kmh 30.07 in1018.3 mb 0.00 in0.0 mm 0.00 in0.0 mm 0.00 in0.0 mm
12:10 AM 66.4°F19.1°C 53.5°F11.9°C 64% 2.0 mph W3.2 kmh W 6.0 mph9.7 kmh 30.07 in1018.3 mb 0.00 in0.0 mm 0.00 in0.0 mm 0.00 in0.0 mm
12:05 AM 66.6°F19.2°C 53.7°F12.1°C 64% Calm Calm 6.0 mph9.7 kmh 30.07 in1018.3 mb 0.00 in0.0 mm 0.00 in0.0 mm 0.00 in0.0 mm
12:00 AM 66.8°F19.3°C 53.5°F11.9°C 63% Calm Calm 8.0 mph12.9 kmh 30.07 in1018.3 mb 0.00 in0.0 mm 0.00 in0.0 mm 0.00 in0.0 mm